createdAt,value
2019-05-25T00:01:07.057Z,9.63
2019-05-25T00:03:35.816Z,8.50
2019-05-25T00:06:04.747Z,7.60
2019-05-25T00:08:33.528Z,7.80
2019-05-25T00:11:03.187Z,8.63
2019-05-25T00:13:31.923Z,9.10
2019-05-25T00:16:00.759Z,7.73
2019-05-25T00:18:30.772Z,9.60
2019-05-25T00:20:59.577Z,8.67
2019-05-25T00:23:28.428Z,7.03
2019-05-25T00:25:57.174Z,9.30
2019-05-25T00:28:25.931Z,8.95
2019-05-25T00:30:54.679Z,8.07
2019-05-25T00:33:23.417Z,6.83
2019-05-25T00:35:52.163Z,6.90
2019-05-25T00:38:21.395Z,8.37
2019-05-25T00:40:50.213Z,11.40
2019-05-25T00:43:18.956Z,9.23
2019-05-25T00:45:47.716Z,9.57
2019-05-25T00:48:16.516Z,7.30
2019-05-25T00:50:45.345Z,7.30
2019-05-25T00:53:14.118Z,7.20
2019-05-25T00:55:42.869Z,7.40
2019-05-25T00:58:11.789Z,7.80
2019-05-25T01:00:40.629Z,9.40
2019-05-25T01:03:09.459Z,6.63
2019-05-25T01:05:38.494Z,7.00
2019-05-25T01:08:07.328Z,10.18
2019-05-25T01:10:36.163Z,8.93
2019-05-25T01:13:04.974Z,8.93
2019-05-25T01:15:33.817Z,6.97
2019-05-25T01:18:02.577Z,6.97
2019-05-25T01:20:31.411Z,6.27
2019-05-25T01:23:00.175Z,8.97
2019-05-25T01:25:28.963Z,8.10
2019-05-25T01:27:57.719Z,13.87
2019-05-25T01:30:26.539Z,7.80
2019-05-25T01:32:55.308Z,7.20
2019-05-25T01:35:24.046Z,9.10
2019-05-25T01:37:52.808Z,9.07
2019-05-25T01:40:21.898Z,6.97
2019-05-25T01:42:50.685Z,8.63
2019-05-25T01:45:19.575Z,9.08
2019-05-25T01:47:48.400Z,7.13
2019-05-25T01:50:18.551Z,7.77
2019-05-25T01:52:47.329Z,9.13
2019-05-25T01:55:16.277Z,6.83
2019-05-25T01:57:45.098Z,9.80
2019-05-25T02:00:14.466Z,7.07
2019-05-25T02:02:43.209Z,6.50
2019-05-25T02:05:12.212Z,7.83
2019-05-25T02:07:40.950Z,9.00
2019-05-25T02:10:11.121Z,7.33
2019-05-25T02:12:39.868Z,7.53
2019-05-25T02:15:09.697Z,6.87
2019-05-25T02:17:39.462Z,8.17
2019-05-25T02:20:09.663Z,8.60
2019-05-25T02:22:38.422Z,6.63
2019-05-25T02:25:16.926Z,8.80
2019-05-25T02:27:38.109Z,6.90
2019-05-25T02:30:07.954Z,7.60
2019-05-25T02:32:36.700Z,9.47
2019-05-25T02:35:06.235Z,11.83
2019-05-25T02:37:35.003Z,9.87
2019-05-25T02:40:04.698Z,8.05
2019-05-25T02:42:34.097Z,8.53
2019-05-25T02:45:02.936Z,9.30
2019-05-25T02:47:31.751Z,7.17
2019-05-25T02:50:01.404Z,6.47
2019-05-25T02:52:30.236Z,7.37
2019-05-25T02:54:58.980Z,7.37
2019-05-25T02:57:27.734Z,6.23
2019-05-25T02:59:56.495Z,6.03
2019-05-25T03:02:25.321Z,6.30
2019-05-25T03:04:54.139Z,6.17
2019-05-25T03:07:23.444Z,6.00
2019-05-25T03:09:52.943Z,9.90
2019-05-25T03:12:21.736Z,6.07
2019-05-25T03:14:50.528Z,7.17
2019-05-25T03:17:19.282Z,6.70
2019-05-25T03:19:48.028Z,5.53
2019-05-25T03:22:16.770Z,6.17
2019-05-25T03:24:45.526Z,5.55
2019-05-25T03:27:14.269Z,5.43
2019-05-25T03:29:43.020Z,8.80
2019-05-25T03:32:11.870Z,4.97
2019-05-25T03:34:40.618Z,5.30
2019-05-25T03:37:09.387Z,8.20
2019-05-25T03:39:38.131Z,7.07
2019-05-25T03:42:06.948Z,6.43
2019-05-25T03:44:35.728Z,5.37
2019-05-25T03:47:04.773Z,5.90
2019-05-25T03:49:33.508Z,5.23
2019-05-25T03:52:02.340Z,5.62
2019-05-25T03:54:31.165Z,5.67
2019-05-25T03:57:00.172Z,7.63
2019-05-25T03:59:28.908Z,5.80
2019-05-25T04:01:57.653Z,5.57
2019-05-25T04:04:26.435Z,5.67
2019-05-25T04:06:55.218Z,6.73
2019-05-25T04:09:23.968Z,6.78
2019-05-25T04:11:52.739Z,6.30
2019-05-25T04:14:21.566Z,6.65
2019-05-25T04:16:50.393Z,6.10
2019-05-25T04:19:19.145Z,6.57
2019-05-25T04:21:47.887Z,4.93
2019-05-25T04:24:17.838Z,5.47
2019-05-25T04:26:46.665Z,8.80
2019-05-25T04:29:15.417Z,5.43
2019-05-25T04:31:44.419Z,6.70
2019-05-25T04:34:13.200Z,7.27
2019-05-25T04:36:41.946Z,5.62
2019-05-25T04:39:10.826Z,5.47
2019-05-25T04:41:39.567Z,5.97
2019-05-25T04:44:08.328Z,6.87
2019-05-25T04:46:37.377Z,6.80
2019-05-25T04:49:06.127Z,5.30
2019-05-25T04:51:34.888Z,8.33
2019-05-25T04:54:03.811Z,6.10
2019-05-25T04:56:39.253Z,7.53
2019-05-25T04:59:03.141Z,5.67
2019-05-25T05:01:31.966Z,4.27
2019-05-25T05:04:00.716Z,4.37
2019-05-25T05:06:29.538Z,4.50
2019-05-25T05:08:58.331Z,5.57
2019-05-25T05:11:27.140Z,6.10
2019-05-25T05:14:08.644Z,4.37
2019-05-25T05:16:46.235Z,5.00
2019-05-25T05:19:14.916Z,4.45
2019-05-25T05:21:43.671Z,4.97
2019-05-25T05:24:12.431Z,4.30
2019-05-25T05:26:54.706Z,7.23
2019-05-25T05:29:12.448Z,4.03
2019-05-25T05:31:41.263Z,4.73
2019-05-25T05:34:10.218Z,6.20
2019-05-25T05:36:39.318Z,5.95
2019-05-25T05:39:08.699Z,5.70
2019-05-25T05:41:38.792Z,4.78
2019-05-25T05:44:08.147Z,4.10
2019-05-25T05:46:38.395Z,6.37
2019-05-25T05:49:10.014Z,3.90
2019-05-25T05:51:39.106Z,3.85
2019-05-25T05:54:07.951Z,5.37
2019-05-25T05:56:37.272Z,3.70
2019-05-25T05:59:06.036Z,7.17
2019-05-25T06:01:34.786Z,4.20
2019-05-25T06:04:03.585Z,3.63
2019-05-25T06:06:32.390Z,4.23
2019-05-25T06:09:01.131Z,3.72
2019-05-25T06:11:29.892Z,3.67
2019-05-25T06:13:58.679Z,4.40
2019-05-25T06:16:27.429Z,3.80
2019-05-25T06:18:56.332Z,5.37
2019-05-25T06:21:25.113Z,5.63
2019-05-25T06:23:56.242Z,5.93
2019-05-25T06:26:24.967Z,5.97
2019-05-25T06:28:53.733Z,3.67
2019-05-25T06:31:22.480Z,6.63
2019-05-25T06:33:51.309Z,4.67
2019-05-25T06:36:20.095Z,3.95
2019-05-25T06:38:48.836Z,4.60
2019-05-25T06:41:17.839Z,3.83
2019-05-25T06:43:46.587Z,5.17
2019-05-25T06:46:15.367Z,3.62
2019-05-25T06:48:44.105Z,5.53
2019-05-25T06:51:12.856Z,5.03
2019-05-25T06:53:41.670Z,5.73
2019-05-25T06:56:10.502Z,4.55
2019-05-25T06:58:39.273Z,6.22
2019-05-25T07:01:08.015Z,4.53
2019-05-25T07:03:37.210Z,4.30
2019-05-25T07:06:06.502Z,5.47
2019-05-25T07:08:35.747Z,6.30
2019-05-25T07:11:05.132Z,6.53
2019-05-25T07:13:34.314Z,5.92
2019-05-25T07:16:04.206Z,5.78
2019-05-25T07:18:35.528Z,4.75
2019-05-25T07:21:04.801Z,5.05
2019-05-25T07:23:33.844Z,4.95
2019-05-25T07:26:03.056Z,4.15
2019-05-25T07:28:33.438Z,4.62
2019-05-25T07:31:02.312Z,5.58
2019-05-25T07:33:31.113Z,4.62
2019-05-25T07:35:59.850Z,7.62
2019-05-25T07:38:28.598Z,6.05
2019-05-25T07:40:57.633Z,6.55
2019-05-25T07:43:26.403Z,5.93
2019-05-25T07:45:57.813Z,5.17
2019-05-25T07:48:26.546Z,3.27
2019-05-25T07:50:55.312Z,2.90
2019-05-25T07:53:24.148Z,4.90
2019-05-25T07:55:52.891Z,3.23
2019-05-25T07:58:21.629Z,3.77
2019-05-25T08:00:50.381Z,5.73
2019-05-25T08:03:19.123Z,5.70
2019-05-25T08:05:47.899Z,5.27
2019-05-25T08:08:16.627Z,2.60
2019-05-25T08:10:45.520Z,2.60
2019-05-25T08:13:14.290Z,3.33
2019-05-25T08:15:43.467Z,2.83
2019-05-25T08:18:12.223Z,3.10
2019-05-25T08:20:41.043Z,3.10
2019-05-25T08:23:09.789Z,3.40
2019-05-25T08:25:38.543Z,2.90
2019-05-25T08:28:07.410Z,2.40
2019-05-25T08:30:36.167Z,2.20
2019-05-25T08:33:05.039Z,5.67
2019-05-25T08:35:33.804Z,2.17
2019-05-25T08:38:02.571Z,4.17
2019-05-25T08:40:31.377Z,2.03
2019-05-25T08:43:00.182Z,2.95
2019-05-25T08:45:29.048Z,3.65
2019-05-25T08:47:57.866Z,3.12
2019-05-25T08:50:37.932Z,2.90
2019-05-25T08:52:57.104Z,2.62
2019-05-25T08:55:25.928Z,2.33
2019-05-25T08:57:55.291Z,2.02
2019-05-25T09:00:24.171Z,3.20
2019-05-25T09:02:53.244Z,1.87
2019-05-25T09:05:22.117Z,1.80
2019-05-25T09:07:51.129Z,1.65
2019-05-25T09:10:20.426Z,2.40
2019-05-25T09:12:49.155Z,2.43
2019-05-25T09:15:18.464Z,2.22
2019-05-25T09:17:47.240Z,2.02
2019-05-25T09:20:16.574Z,2.70
2019-05-25T09:22:50.571Z,2.83
2019-05-25T09:25:19.527Z,3.47
2019-05-25T09:27:54.279Z,3.83
2019-05-25T09:30:28.840Z,2.70
2019-05-25T09:32:59.190Z,2.25
2019-05-25T09:35:29.615Z,1.97
2019-05-25T09:38:00.466Z,1.37
2019-05-25T09:40:31.636Z,1.70
2019-05-25T09:43:02.776Z,1.63
2019-05-25T09:45:31.545Z,1.90
2019-05-25T09:48:00.403Z,3.58
2019-05-25T09:50:31.047Z,3.33
2019-05-25T09:53:00.269Z,2.12
2019-05-25T09:55:29.012Z,1.85
2019-05-25T09:57:57.770Z,2.17
2019-05-25T10:00:26.885Z,2.27
2019-05-25T10:02:55.806Z,3.33
2019-05-25T10:05:24.703Z,2.47
2019-05-25T10:07:53.597Z,2.77
2019-05-25T10:10:22.689Z,1.30
2019-05-25T10:12:52.316Z,1.77
2019-05-25T10:15:21.101Z,1.98
2019-05-25T10:17:50.489Z,1.47
2019-05-25T10:20:19.562Z,1.67
2019-05-25T10:22:48.308Z,1.22
2019-05-25T10:25:17.516Z,2.15
2019-05-25T10:27:46.372Z,1.30
2019-05-25T10:30:15.991Z,3.00
2019-05-25T10:32:44.821Z,1.42
2019-05-25T10:35:14.660Z,3.00
2019-05-25T10:37:43.412Z,3.35
2019-05-25T10:40:12.640Z,2.25
2019-05-25T10:42:41.410Z,1.90
2019-05-25T10:45:10.713Z,1.42
2019-05-25T10:47:39.574Z,2.13
2019-05-25T10:50:09.062Z,1.82
2019-05-25T10:52:37.814Z,1.70
2019-05-25T10:55:07.329Z,2.52
2019-05-25T10:57:36.164Z,1.92
2019-05-25T11:00:05.689Z,2.92
2019-05-25T11:02:34.432Z,2.55
2019-05-25T11:05:03.510Z,1.67
2019-05-25T11:07:32.257Z,1.35
2019-05-25T11:10:01.004Z,2.65
2019-05-25T11:12:29.769Z,2.30
2019-05-25T11:14:58.522Z,2.47
2019-05-25T11:17:27.298Z,2.30
2019-05-25T11:19:56.044Z,2.47
2019-05-25T11:22:24.858Z,2.05
2019-05-25T11:24:53.665Z,1.50
2019-05-25T11:27:22.516Z,4.45
2019-05-25T11:29:51.398Z,2.37
2019-05-25T11:32:20.252Z,2.08
2019-05-25T11:34:49.177Z,1.75
2019-05-25T11:37:18.133Z,2.95
2019-05-25T11:39:46.895Z,2.15
2019-05-25T11:42:15.655Z,3.72
2019-05-25T11:44:44.473Z,1.90
2019-05-25T11:47:13.220Z,1.73
2019-05-25T11:49:41.979Z,2.95
2019-05-25T11:52:12.302Z,2.48
2019-05-25T11:54:41.053Z,3.00
2019-05-25T11:57:09.898Z,3.60
2019-05-25T11:59:38.658Z,1.75
2019-05-25T12:02:07.478Z,2.42
2019-05-25T12:04:36.289Z,3.52
2019-05-25T12:07:05.313Z,2.35
2019-05-25T12:09:34.070Z,2.77
2019-05-25T12:12:03.026Z,2.63
2019-05-25T12:14:31.943Z,2.00
2019-05-25T12:17:00.781Z,5.00
2019-05-25T12:19:30.289Z,3.92
2019-05-25T12:21:59.039Z,2.12
2019-05-25T12:24:27.798Z,1.22
2019-05-25T12:26:56.565Z,1.57
2019-05-25T12:29:25.345Z,3.05
2019-05-25T12:32:03.665Z,1.57
2019-05-25T12:34:25.143Z,2.25
2019-05-25T12:36:53.960Z,3.08
2019-05-25T12:39:26.446Z,1.65
2019-05-25T12:41:53.319Z,2.07
2019-05-25T12:44:22.064Z,1.60
2019-05-25T12:46:52.276Z,2.92
2019-05-25T12:49:21.029Z,3.87
2019-05-25T12:51:49.763Z,2.45
2019-05-25T12:54:18.725Z,1.92
2019-05-25T12:56:47.544Z,1.32
2019-05-25T12:59:16.363Z,1.80
2019-05-25T13:01:45.103Z,4.15
2019-05-25T13:04:13.850Z,2.15
2019-05-25T13:06:42.600Z,4.05
2019-05-25T13:09:11.338Z,2.44
2019-05-25T13:11:40.136Z,2.00
2019-05-25T13:14:14.409Z,2.02
2019-05-25T13:16:39.428Z,2.20
2019-05-25T13:19:08.200Z,3.27
2019-05-25T13:21:36.935Z,1.67
2019-05-25T13:24:05.774Z,2.70
2019-05-25T13:26:34.537Z,2.42
2019-05-25T13:29:03.349Z,1.35
2019-05-25T13:31:32.096Z,2.17
2019-05-25T13:34:00.929Z,1.85
2019-05-25T13:36:29.757Z,2.60
2019-05-25T13:38:58.910Z,2.77
2019-05-25T13:41:27.682Z,3.37
2019-05-25T13:43:56.466Z,1.60
2019-05-25T13:46:25.360Z,2.67
2019-05-25T13:48:54.148Z,3.00
2019-05-25T13:51:25.428Z,4.10
2019-05-25T13:53:53.406Z,2.47
2019-05-25T13:56:22.173Z,1.90
2019-05-25T13:58:51.207Z,3.27
2019-05-25T14:01:28.313Z,2.30
2019-05-25T14:03:50.419Z,2.43
2019-05-25T14:06:19.164Z,2.47
2019-05-25T14:08:47.895Z,1.50
2019-05-25T14:11:16.645Z,3.08
2019-05-25T14:13:45.392Z,2.30
2019-05-25T14:16:14.138Z,1.30
2019-05-25T14:18:42.887Z,1.80
2019-05-25T14:21:11.646Z,2.17
2019-05-25T14:23:40.390Z,1.93
2019-05-25T14:26:09.174Z,2.30
2019-05-25T14:28:38.550Z,3.60
2019-05-25T14:31:07.307Z,1.27
2019-05-25T14:33:36.083Z,1.77
2019-05-25T14:36:05.283Z,3.57
2019-05-25T14:38:34.022Z,1.80
2019-05-25T14:41:05.030Z,1.70
2019-05-25T14:43:36.199Z,2.67
2019-05-25T14:46:05.472Z,1.90
2019-05-25T14:48:34.204Z,1.50
2019-05-25T14:51:02.957Z,2.90
2019-05-25T14:53:33.295Z,2.00
2019-05-25T14:56:02.081Z,2.30
2019-05-25T14:58:30.848Z,3.40
2019-05-25T15:00:59.597Z,2.80
2019-05-25T15:03:32.843Z,1.90
2019-05-25T15:06:01.623Z,2.07
2019-05-25T15:08:30.404Z,3.87
2019-05-25T15:10:59.190Z,3.10
2019-05-25T15:13:27.941Z,3.30
2019-05-25T15:15:56.693Z,3.37
2019-05-25T15:18:25.545Z,4.70
2019-05-25T15:20:55.245Z,2.17
2019-05-25T15:23:23.971Z,2.50
2019-05-25T15:25:52.725Z,2.67
2019-05-25T15:28:21.641Z,3.27
2019-05-25T15:30:50.488Z,2.63
2019-05-25T15:33:19.479Z,2.37
2019-05-25T15:35:48.333Z,6.33
2019-05-25T15:38:17.079Z,4.58
2019-05-25T15:40:46.135Z,3.70
2019-05-25T15:43:15.256Z,3.13
2019-05-25T15:45:44.097Z,4.73
2019-05-25T15:48:12.933Z,3.23
2019-05-25T15:50:41.722Z,5.30
2019-05-25T15:53:10.549Z,4.00
2019-05-25T15:55:39.409Z,5.08
2019-05-25T15:58:08.231Z,6.60
2019-05-25T16:00:46.030Z,3.00
2019-05-25T16:03:15.503Z,3.23
2019-05-25T16:05:47.458Z,3.33
2019-05-25T16:08:14.857Z,4.03
2019-05-25T16:10:43.632Z,3.60
2019-05-25T16:13:12.371Z,4.60
2019-05-25T16:15:41.217Z,6.37
2019-05-25T16:18:09.996Z,4.57
2019-05-25T16:20:38.737Z,5.13
2019-05-25T16:23:07.624Z,4.60
2019-05-25T16:25:36.439Z,4.40
2019-05-25T16:28:06.652Z,7.30
2019-05-25T16:30:35.405Z,4.13
2019-05-25T16:33:14.049Z,5.60
2019-05-25T16:35:34.852Z,5.10
2019-05-25T16:38:03.817Z,4.67
2019-05-25T16:40:32.802Z,7.20
2019-05-25T16:43:02.370Z,5.60
2019-05-25T16:45:32.107Z,6.90
2019-05-25T16:48:00.919Z,8.00
2019-05-25T16:50:29.750Z,4.27
2019-05-25T16:52:58.581Z,4.63
2019-05-25T16:55:27.349Z,5.80
2019-05-25T16:57:56.082Z,5.97
2019-05-25T17:00:28.842Z,5.87
2019-05-25T17:02:58.318Z,4.97
2019-05-25T17:05:27.996Z,4.22
2019-05-25T17:07:57.151Z,4.73
2019-05-25T17:10:28.113Z,5.17
2019-05-25T17:12:58.096Z,4.93
2019-05-25T17:15:30.622Z,4.03
2019-05-25T17:17:59.515Z,6.27
2019-05-25T17:20:29.297Z,4.90
2019-05-25T17:22:58.118Z,4.53
2019-05-25T17:25:26.883Z,7.23
2019-05-25T17:27:55.653Z,7.12
2019-05-25T17:30:43.496Z,5.10
2019-05-25T17:33:12.690Z,5.73
2019-05-25T17:35:43.043Z,7.20
2019-05-25T17:38:11.872Z,6.17
2019-05-25T17:40:40.833Z,7.03
2019-05-25T17:43:09.798Z,5.30
2019-05-25T17:45:38.613Z,7.03
2019-05-25T17:48:07.824Z,5.72
2019-05-25T17:50:36.871Z,6.30
2019-05-25T17:53:06.250Z,7.62
2019-05-25T17:55:35.179Z,7.20
2019-05-25T17:58:04.546Z,7.20
2019-05-25T18:00:41.452Z,8.67
2019-05-25T18:03:10.298Z,7.17
2019-05-25T18:05:40.833Z,8.37
2019-05-25T18:08:11.400Z,8.10
2019-05-25T18:10:51.915Z,6.47
2019-05-25T18:13:10.853Z,7.23
2019-05-25T18:15:39.608Z,7.73
2019-05-25T18:18:08.537Z,6.70
2019-05-25T18:20:37.413Z,7.63
2019-05-25T18:23:06.310Z,6.33
2019-05-25T18:25:35.139Z,8.18
2019-05-25T18:28:04.709Z,8.17
2019-05-25T18:30:33.831Z,8.28
2019-05-25T18:33:02.578Z,7.10
2019-05-25T18:35:32.322Z,6.80
2019-05-25T18:38:01.256Z,7.73
2019-05-25T18:40:30.036Z,10.97
2019-05-25T18:42:58.792Z,8.23
2019-05-25T18:45:27.601Z,7.90
2019-05-25T18:47:56.463Z,9.18
2019-05-25T18:50:25.668Z,9.17
2019-05-25T18:52:54.422Z,9.08
2019-05-25T18:55:23.341Z,8.40
2019-05-25T18:57:52.210Z,7.62
2019-05-25T19:00:21.826Z,8.63
2019-05-25T19:02:51.544Z,7.65
2019-05-25T19:05:20.758Z,7.83
2019-05-25T19:07:49.521Z,7.67
2019-05-25T19:10:19.052Z,7.43
2019-05-25T19:12:47.796Z,7.80
2019-05-25T19:15:18.574Z,7.70
2019-05-25T19:17:48.003Z,10.60
2019-05-25T19:20:20.985Z,8.78
2019-05-25T19:22:47.797Z,7.63
2019-05-25T19:25:16.813Z,7.58
2019-05-25T19:27:45.635Z,7.13
2019-05-25T19:30:15.156Z,7.57
2019-05-25T19:32:43.932Z,8.80
2019-05-25T19:35:12.768Z,8.37
2019-05-25T19:37:42.665Z,6.87
2019-05-25T19:40:12.001Z,8.40
2019-05-25T19:42:40.753Z,7.43
2019-05-25T19:45:10.203Z,8.87
2019-05-25T19:47:38.978Z,7.53
2019-05-25T19:50:08.339Z,8.70
2019-05-25T19:52:37.191Z,8.45
2019-05-25T19:55:06.955Z,7.50
2019-05-25T19:57:35.871Z,9.20
2019-05-25T20:00:05.878Z,9.27
2019-05-25T20:02:36.640Z,10.85
2019-05-25T20:05:15.968Z,8.30
2019-05-25T20:07:36.925Z,7.07
2019-05-25T20:10:06.499Z,7.23
2019-05-25T20:12:35.306Z,7.90
2019-05-25T20:15:04.239Z,7.33
2019-05-25T20:17:32.994Z,7.10
2019-05-25T20:20:03.231Z,6.33
2019-05-25T20:22:32.167Z,7.03
2019-05-25T20:25:00.887Z,6.62
2019-05-25T20:27:29.789Z,6.17
2019-05-25T20:29:59.240Z,6.43
2019-05-25T20:32:28.028Z,6.30
2019-05-25T20:34:56.758Z,6.30
2019-05-25T20:37:25.817Z,6.17
2019-05-25T20:39:54.580Z,6.57
2019-05-25T20:42:23.556Z,7.60
2019-05-25T20:44:57.744Z,5.47
2019-05-25T20:47:26.814Z,5.00
2019-05-25T20:49:55.608Z,5.67
2019-05-25T20:52:27.259Z,5.12
2019-05-25T20:54:56.107Z,5.43
2019-05-25T20:57:26.054Z,8.63
2019-05-25T20:59:54.921Z,4.80
2019-05-25T21:02:23.776Z,4.50
2019-05-25T21:04:55.011Z,6.63
2019-05-25T21:07:25.274Z,5.43
2019-05-25T21:09:56.617Z,5.70
2019-05-25T21:12:25.660Z,4.63
2019-05-25T21:14:54.891Z,4.87
2019-05-25T21:17:23.956Z,6.60
2019-05-25T21:19:55.447Z,4.67
2019-05-25T21:22:26.878Z,5.87
2019-05-25T21:24:57.935Z,5.00
2019-05-25T21:27:26.665Z,7.70
2019-05-25T21:29:55.531Z,5.45
2019-05-25T21:32:24.640Z,7.07
2019-05-25T21:34:53.836Z,5.40
2019-05-25T21:37:22.800Z,5.23
2019-05-25T21:39:53.305Z,5.37
2019-05-25T21:42:22.448Z,5.23
2019-05-25T21:44:51.275Z,6.07
2019-05-25T21:47:20.259Z,10.03
2019-05-25T21:49:49.059Z,10.03
2019-05-25T21:52:17.843Z,5.72
2019-05-25T21:54:46.762Z,8.23
2019-05-25T21:57:15.590Z,6.03
2019-05-25T21:59:44.345Z,6.30
2019-05-25T22:02:20.743Z,5.60
2019-05-25T22:04:51.060Z,5.43
2019-05-25T22:07:21.715Z,4.97
2019-05-25T22:09:51.146Z,6.10
2019-05-25T22:12:21.135Z,5.67
2019-05-25T22:14:51.153Z,5.40
2019-05-25T22:17:21.539Z,7.58
2019-05-25T22:19:52.208Z,5.90
2019-05-25T22:25:54.680Z,5.83
2019-05-25T22:28:57.988Z,6.00
2019-05-25T22:31:32.539Z,5.37
2019-05-25T22:34:04.657Z,7.47
2019-05-25T22:36:40.753Z,5.83
2019-05-25T22:39:11.725Z,8.47
2019-05-25T22:41:46.150Z,5.08
2019-05-25T22:44:22.206Z,6.67
2019-05-25T22:47:14.422Z,5.70
2019-05-25T22:50:10.743Z,5.53
2019-05-25T22:53:05.158Z,6.80
2019-05-25T22:55:37.735Z,5.97
2019-05-25T22:58:13.101Z,6.60
2019-05-25T23:00:47.435Z,5.77
2019-05-25T23:03:41.547Z,5.72
2019-05-25T23:06:24.351Z,6.03
2019-05-25T23:09:00.450Z,6.00
2019-05-25T23:11:44.236Z,6.22
2019-05-25T23:14:20.095Z,7.10
2019-05-25T23:17:31.468Z,6.67
2019-05-25T23:20:31.634Z,5.83
2019-05-25T23:23:07.222Z,5.70
2019-05-25T23:26:06.859Z,6.37
2019-05-25T23:29:30.031Z,5.23
2019-05-25T23:35:03.968Z,8.07
2019-05-25T23:37:41.984Z,5.25
2019-05-25T23:40:27.850Z,8.10
2019-05-25T23:44:02.894Z,6.67
2019-05-25T23:46:37.819Z,9.47
2019-05-25T23:49:45.517Z,7.23
2019-05-25T23:55:58.991Z,6.00
2019-05-25T23:58:40.483Z,6.27
